createdAt,value
2023-04-19T00:08:48.965Z,101324
2023-04-19T00:54:50.501Z,101299
2023-04-19T01:01:33.878Z,101298
2023-04-19T01:14:33.214Z,101285
2023-04-19T01:41:50.182Z,101285
2023-04-19T02:01:45.583Z,101262
2023-04-19T02:14:58.478Z,101254
2023-04-19T02:34:34.238Z,101238
2023-04-19T02:41:00.650Z,101235
2023-04-19T03:00:47.025Z,101228
2023-04-19T03:07:06.776Z,101232
2023-04-19T03:13:23.310Z,101220
2023-04-19T03:33:30.218Z,101225
2023-04-19T04:06:41.541Z,101202
2023-04-19T04:54:33.813Z,101217
2023-04-19T05:47:42.600Z,101215
2023-04-19T05:54:17.170Z,101213
2023-04-19T06:01:02.047Z,101202
2023-04-19T06:21:04.421Z,101201
2023-04-19T06:34:30.847Z,101209
2023-04-19T06:40:59.493Z,101211
2023-04-19T06:47:02.158Z,101212
2023-04-19T06:52:54.416Z,101202
2023-04-19T06:59:12.342Z,101203
2023-04-19T07:05:45.556Z,101193
2023-04-19T07:31:42.897Z,101192
2023-04-19T07:37:48.122Z,101186
2023-04-19T07:44:04.014Z,101180
2023-04-19T07:50:32.886Z,101161
2023-04-19T07:56:50.535Z,101158
2023-04-19T08:02:55.549Z,101168
2023-04-19T08:08:50.200Z,101167
2023-04-19T08:15:15.147Z,101166
2023-04-19T08:21:28.563Z,101162
2023-04-19T08:27:30.777Z,101167
2023-04-19T08:33:35.777Z,101155
2023-04-19T08:39:37.479Z,101153
2023-04-19T08:45:52.571Z,101148
2023-04-19T08:52:20.028Z,101136
2023-04-19T09:06:17.670Z,101125
2023-04-19T09:18:17.055Z,101115
2023-04-19T09:25:46.934Z,101115
2023-04-19T09:32:20.310Z,101109
2023-04-19T09:51:29.222Z,101100
2023-04-19T09:57:21.493Z,101079
2023-04-19T10:03:14.487Z,101077
2023-04-19T10:09:16.212Z,101076
2023-04-19T10:15:12.978Z,101072
2023-04-19T10:21:05.896Z,101073
2023-04-19T10:26:58.649Z,101058
2023-04-19T10:32:50.723Z,101055
2023-04-19T10:38:42.395Z,101054
2023-04-19T10:44:33.988Z,101056
2023-04-19T10:50:25.256Z,101047
2023-04-19T10:56:16.959Z,101035
2023-04-19T11:02:08.721Z,101034
2023-04-19T11:08:00.681Z,101026
2023-04-19T11:13:52.825Z,101016
2023-04-19T11:19:47.819Z,101000
2023-04-19T11:25:41.929Z,101003
2023-04-19T11:31:34.579Z,101001
2023-04-19T11:37:35.177Z,100986
2023-04-19T11:43:29.988Z,100968
2023-04-19T11:49:22.405Z,100979
2023-04-19T11:55:15.358Z,100971
2023-04-19T12:02:16.806Z,100954
2023-04-19T12:08:09.152Z,100972
2023-04-19T12:14:03.260Z,100952
2023-04-19T12:19:55.893Z,100946
2023-04-19T12:25:52.940Z,100935
2023-04-19T12:31:47.045Z,100923
2023-04-19T12:37:40.967Z,100921
2023-04-19T12:43:32.916Z,100947
2023-04-19T12:49:25.158Z,100916
2023-04-19T12:55:18.768Z,100927
2023-04-19T13:01:11.592Z,100906
2023-04-19T13:07:05.578Z,100902
2023-04-19T13:12:58.800Z,100899
2023-04-19T13:18:52.033Z,100886
2023-04-19T13:24:43.695Z,100883
2023-04-19T13:30:35.913Z,100878
2023-04-19T13:36:29.619Z,100880
2023-04-19T13:42:25.064Z,100872
2023-04-19T13:48:18.315Z,100864
2023-04-19T13:54:10.574Z,100857
2023-04-19T14:00:06.001Z,100858
2023-04-19T14:06:01.019Z,100859
2023-04-19T14:11:54.123Z,100844
2023-04-19T14:17:56.074Z,100851
2023-04-19T14:23:50.371Z,100837
2023-04-19T14:29:44.725Z,100829
2023-04-19T14:35:36.963Z,100822
2023-04-19T14:41:32.875Z,100822
2023-04-19T14:47:25.752Z,100820
2023-04-19T14:53:18.339Z,100811
2023-04-19T14:59:11.789Z,100803
2023-04-19T15:05:18.225Z,100805
2023-04-19T15:11:11.379Z,100810
2023-04-19T15:17:12.955Z,100810
2023-04-19T15:23:07.988Z,100815
2023-04-19T15:29:29.815Z,100799
2023-04-19T15:35:32.062Z,100807
2023-04-19T15:41:27.619Z,100813
2023-04-19T15:47:23.683Z,100805
2023-04-19T15:59:47.829Z,100807
2023-04-19T16:06:03.176Z,100796
2023-04-19T16:11:59.525Z,100811
2023-04-19T16:18:05.691Z,100806
2023-04-19T16:23:57.180Z,100820
2023-04-19T16:29:49.636Z,100819
2023-04-19T16:35:46.608Z,100822
2023-04-19T16:41:40.501Z,100828
2023-04-19T16:47:48.995Z,100827
2023-04-19T16:53:48.059Z,100820
2023-04-19T16:59:44.506Z,100814
2023-04-19T17:05:39.506Z,100812
2023-04-19T17:11:39.242Z,100820
2023-04-19T17:17:42.106Z,100809
2023-04-19T17:23:41.070Z,100810
2023-04-19T17:29:39.189Z,100819
2023-04-19T17:35:39.432Z,100812
2023-04-19T17:41:41.184Z,100824
2023-04-19T17:47:39.082Z,100823
2023-04-19T17:53:31.953Z,100823
2023-04-19T17:59:26.657Z,100821
2023-04-19T18:05:19.339Z,100824
2023-04-19T18:11:13.183Z,100819
2023-04-19T18:17:07.356Z,100824
2023-04-19T18:23:11.005Z,100834
2023-04-19T18:29:03.066Z,100837
2023-04-19T18:34:55.126Z,100835
2023-04-19T18:40:48.741Z,100836
2023-04-19T18:46:42.180Z,100844
2023-04-19T18:52:37.171Z,100844
2023-04-19T18:58:35.449Z,100856
2023-04-19T19:05:07.132Z,100860
2023-04-19T19:11:54.741Z,100863
2023-04-19T19:17:52.880Z,100872
2023-04-19T19:23:48.738Z,100881
2023-04-19T19:29:50.261Z,100873
2023-04-19T19:35:44.406Z,100879
2023-04-19T19:42:09.833Z,100885
2023-04-19T19:48:03.314Z,100880
2023-04-19T19:53:58.333Z,100883
2023-04-19T20:00:16.032Z,100893
2023-04-19T20:13:39.278Z,100893
2023-04-19T20:19:33.129Z,100902
2023-04-19T20:31:57.143Z,100900
2023-04-19T20:37:54.997Z,100900
2023-04-19T20:44:15.373Z,100902
2023-04-19T20:50:17.576Z,100902
2023-04-19T20:56:18.373Z,100907
2023-04-19T21:02:10.437Z,100907
2023-04-19T21:08:03.764Z,100901
2023-04-19T21:14:03.439Z,100901
2023-04-19T21:19:58.979Z,100904
2023-04-19T21:25:52.643Z,100901
2023-04-19T21:31:50.577Z,100896
2023-04-19T21:37:44.969Z,100890
2023-04-19T21:43:39.749Z,100888
2023-04-19T21:49:35.099Z,100881
2023-04-19T21:55:30.451Z,100880
2023-04-19T22:01:25.082Z,100873
2023-04-19T22:07:23.154Z,100871
2023-04-19T22:13:18.968Z,100863
2023-04-19T22:19:12.487Z,100867
2023-04-19T22:25:05.947Z,100857
2023-04-19T22:31:02.958Z,100854
2023-04-19T22:37:10.545Z,100851
2023-04-19T22:43:03.943Z,100844
2023-04-19T22:49:24.692Z,100832
2023-04-19T22:55:34.296Z,100824
2023-04-19T23:01:48.134Z,100817
2023-04-19T23:07:45.157Z,100808
2023-04-19T23:13:51.692Z,100804
2023-04-19T23:19:49.963Z,100799
2023-04-19T23:25:48.950Z,100787
2023-04-19T23:31:45.953Z,100781
2023-04-19T23:37:40.527Z,100777
2023-04-19T23:43:35.045Z,100776
2023-04-19T23:49:30.216Z,100770
2023-04-19T23:55:22.870Z,100766
